sensor_id;sensor_type;location;lat;lon;timestamp;P1;durP1;ratioP1;P2;durP2;ratioP2
8409;SDS011;4242;53.670;10.080;2022-10-16T00:02:05;7.30;;;5.57;;
8409;SDS011;4242;53.670;10.080;2022-10-16T00:04:31;9.07;;;6.60;;
8409;SDS011;4242;53.670;10.080;2022-10-16T00:06:57;6.63;;;5.97;;
8409;SDS011;4242;53.670;10.080;2022-10-16T00:09:23;6.87;;;4.80;;
8409;SDS011;4242;53.670;10.080;2022-10-16T00:11:49;7.40;;;5.60;;
8409;SDS011;4242;53.670;10.080;2022-10-16T00:14:15;6.70;;;4.97;;
8409;SDS011;4242;53.670;10.080;2022-10-16T00:16:41;7.50;;;5.33;;
8409;SDS011;4242;53.670;10.080;2022-10-16T00:19:08;5.53;;;5.00;;
8409;SDS011;4242;53.670;10.080;2022-10-16T00:21:34;4.60;;;4.20;;
8409;SDS011;4242;53.670;10.080;2022-10-16T00:24:02;6.27;;;4.30;;
8409;SDS011;4242;53.670;10.080;2022-10-16T00:26:29;5.63;;;4.27;;
8409;SDS011;4242;53.670;10.080;2022-10-16T00:28:55;5.40;;;3.90;;
8409;SDS011;4242;53.670;10.080;2022-10-16T00:31:22;6.17;;;4.30;;
8409;SDS011;4242;53.670;10.080;2022-10-16T00:33:48;4.87;;;3.80;;
8409;SDS011;4242;53.670;10.080;2022-10-16T00:36:15;3.80;;;3.50;;
8409;SDS011;4242;53.670;10.080;2022-10-16T00:38:42;5.17;;;3.50;;
8409;SDS011;4242;53.670;10.080;2022-10-16T00:41:09;4.37;;;2.77;;
8409;SDS011;4242;53.670;10.080;2022-10-16T00:43:38;4.83;;;3.30;;
8409;SDS011;4242;53.670;10.080;2022-10-16T00:46:50;3.73;;;2.50;;
8409;SDS011;4242;53.670;10.080;2022-10-16T00:51:40;8.03;;;2.40;;
8409;SDS011;4242;53.670;10.080;2022-10-16T00:54:08;4.50;;;2.37;;
8409;SDS011;4242;53.670;10.080;2022-10-16T00:56:34;4.80;;;2.60;;
8409;SDS011;4242;53.670;10.080;2022-10-16T00:59:01;3.60;;;2.13;;
8409;SDS011;4242;53.670;10.080;2022-10-16T01:01:29;3.63;;;2.23;;
8409;SDS011;4242;53.670;10.080;2022-10-16T01:03:55;5.67;;;2.00;;
8409;SDS011;4242;53.670;10.080;2022-10-16T01:06:22;3.27;;;1.87;;
8409;SDS011;4242;53.670;10.080;2022-10-16T01:11:17;4.90;;;2.30;;
8409;SDS011;4242;53.670;10.080;2022-10-16T01:13:46;3.93;;;2.30;;
8409;SDS011;4242;53.670;10.080;2022-10-16T01:16:21;4.30;;;2.27;;
8409;SDS011;4242;53.670;10.080;2022-10-16T01:19:09;6.07;;;1.73;;
8409;SDS011;4242;53.670;10.080;2022-10-16T01:21:42;5.87;;;1.80;;
8409;SDS011;4242;53.670;10.080;2022-10-16T01:24:31;6.20;;;2.03;;
8409;SDS011;4242;53.670;10.080;2022-10-16T01:29:39;5.10;;;1.70;;
8409;SDS011;4242;53.670;10.080;2022-10-16T01:32:25;4.80;;;1.80;;
8409;SDS011;4242;53.670;10.080;2022-10-16T01:35:17;4.07;;;1.93;;
8409;SDS011;4242;53.670;10.080;2022-10-16T01:37:40;4.40;;;1.93;;
8409;SDS011;4242;53.670;10.080;2022-10-16T01:40:09;5.90;;;2.20;;
8409;SDS011;4242;53.670;10.080;2022-10-16T01:42:38;4.07;;;1.63;;
8409;SDS011;4242;53.670;10.080;2022-10-16T01:45:05;4.20;;;1.90;;
8409;SDS011;4242;53.670;10.080;2022-10-16T01:47:32;3.23;;;1.87;;
8409;SDS011;4242;53.670;10.080;2022-10-16T01:49:59;4.23;;;2.07;;
8409;SDS011;4242;53.670;10.080;2022-10-16T01:52:26;3.37;;;1.70;;
8409;SDS011;4242;53.670;10.080;2022-10-16T01:54:53;3.47;;;1.87;;
8409;SDS011;4242;53.670;10.080;2022-10-16T01:57:20;4.17;;;2.00;;
8409;SDS011;4242;53.670;10.080;2022-10-16T01:59:48;6.97;;;1.73;;
8409;SDS011;4242;53.670;10.080;2022-10-16T02:02:17;4.30;;;1.87;;
8409;SDS011;4242;53.670;10.080;2022-10-16T02:04:45;3.40;;;1.90;;
8409;SDS011;4242;53.670;10.080;2022-10-16T02:07:12;3.17;;;1.67;;
8409;SDS011;4242;53.670;10.080;2022-10-16T02:09:38;4.53;;;1.97;;
8409;SDS011;4242;53.670;10.080;2022-10-16T02:12:15;3.77;;;1.87;;
8409;SDS011;4242;53.670;10.080;2022-10-16T02:14:41;4.87;;;1.77;;
8409;SDS011;4242;53.670;10.080;2022-10-16T02:17:12;2.50;;;1.83;;
8409;SDS011;4242;53.670;10.080;2022-10-16T02:19:38;3.40;;;1.77;;
8409;SDS011;4242;53.670;10.080;2022-10-16T02:22:05;2.83;;;2.00;;
8409;SDS011;4242;53.670;10.080;2022-10-16T02:24:33;5.30;;;2.10;;
8409;SDS011;4242;53.670;10.080;2022-10-16T02:27:13;4.93;;;2.07;;
8409;SDS011;4242;53.670;10.080;2022-10-16T02:29:42;4.37;;;1.60;;
8409;SDS011;4242;53.670;10.080;2022-10-16T02:32:10;2.70;;;1.80;;
8409;SDS011;4242;53.670;10.080;2022-10-16T02:34:38;3.80;;;1.67;;
8409;SDS011;4242;53.670;10.080;2022-10-16T02:37:05;3.00;;;1.67;;
8409;SDS011;4242;53.670;10.080;2022-10-16T02:39:31;2.90;;;1.70;;
8409;SDS011;4242;53.670;10.080;2022-10-16T02:41:57;1.93;;;1.50;;
8409;SDS011;4242;53.670;10.080;2022-10-16T02:44:23;4.63;;;1.83;;
8409;SDS011;4242;53.670;10.080;2022-10-16T02:46:49;3.23;;;1.60;;
8409;SDS011;4242;53.670;10.080;2022-10-16T02:49:15;5.27;;;1.80;;
8409;SDS011;4242;53.670;10.080;2022-10-16T02:51:42;3.73;;;1.80;;
8409;SDS011;4242;53.670;10.080;2022-10-16T02:54:08;3.60;;;1.50;;
8409;SDS011;4242;53.670;10.080;2022-10-16T02:56:34;4.97;;;1.90;;
8409;SDS011;4242;53.670;10.080;2022-10-16T02:59:00;2.13;;;1.73;;
8409;SDS011;4242;53.670;10.080;2022-10-16T03:01:27;4.73;;;1.60;;
8409;SDS011;4242;53.670;10.080;2022-10-16T03:03:53;3.57;;;1.73;;
8409;SDS011;4242;53.670;10.080;2022-10-16T03:06:19;7.00;;;1.87;;
8409;SDS011;4242;53.670;10.080;2022-10-16T03:08:45;4.50;;;1.37;;
8409;SDS011;4242;53.670;10.080;2022-10-16T03:11:11;6.40;;;1.70;;
8409;SDS011;4242;53.670;10.080;2022-10-16T03:13:37;2.07;;;1.60;;
8409;SDS011;4242;53.670;10.080;2022-10-16T03:16:03;3.10;;;1.80;;
8409;SDS011;4242;53.670;10.080;2022-10-16T03:18:29;2.90;;;1.53;;
8409;SDS011;4242;53.670;10.080;2022-10-16T03:20:55;2.87;;;1.30;;
8409;SDS011;4242;53.670;10.080;2022-10-16T03:23:20;2.37;;;1.80;;
8409;SDS011;4242;53.670;10.080;2022-10-16T03:25:46;4.03;;;1.47;;
8409;SDS011;4242;53.670;10.080;2022-10-16T03:28:12;3.47;;;1.80;;
8409;SDS011;4242;53.670;10.080;2022-10-16T03:30:38;6.53;;;1.90;;
8409;SDS011;4242;53.670;10.080;2022-10-16T03:33:05;5.10;;;1.70;;
8409;SDS011;4242;53.670;10.080;2022-10-16T03:35:31;2.23;;;1.50;;
8409;SDS011;4242;53.670;10.080;2022-10-16T03:37:57;3.93;;;1.47;;
8409;SDS011;4242;53.670;10.080;2022-10-16T03:40:24;5.67;;;1.80;;
8409;SDS011;4242;53.670;10.080;2022-10-16T03:42:50;3.03;;;1.87;;
8409;SDS011;4242;53.670;10.080;2022-10-16T03:45:16;2.20;;;1.40;;
8409;SDS011;4242;53.670;10.080;2022-10-16T03:47:42;8.10;;;1.53;;
8409;SDS011;4242;53.670;10.080;2022-10-16T03:50:08;3.77;;;1.30;;
8409;SDS011;4242;53.670;10.080;2022-10-16T03:52:34;2.77;;;1.40;;
8409;SDS011;4242;53.670;10.080;2022-10-16T03:55:00;4.60;;;1.50;;
8409;SDS011;4242;53.670;10.080;2022-10-16T03:57:26;4.43;;;1.40;;
8409;SDS011;4242;53.670;10.080;2022-10-16T03:59:52;3.93;;;1.60;;
8409;SDS011;4242;53.670;10.080;2022-10-16T04:02:18;4.37;;;1.40;;
8409;SDS011;4242;53.670;10.080;2022-10-16T04:04:44;2.40;;;1.27;;
8409;SDS011;4242;53.670;10.080;2022-10-16T04:07:10;3.27;;;1.27;;
8409;SDS011;4242;53.670;10.080;2022-10-16T04:09:36;7.07;;;1.80;;
8409;SDS011;4242;53.670;10.080;2022-10-16T04:12:02;8.83;;;1.70;;
8409;SDS011;4242;53.670;10.080;2022-10-16T04:14:28;2.20;;;1.50;;
8409;SDS011;4242;53.670;10.080;2022-10-16T04:16:54;4.03;;;1.63;;
8409;SDS011;4242;53.670;10.080;2022-10-16T04:19:20;1.77;;;1.53;;
8409;SDS011;4242;53.670;10.080;2022-10-16T04:21:46;3.07;;;1.60;;
8409;SDS011;4242;53.670;10.080;2022-10-16T04:24:12;4.70;;;1.50;;
8409;SDS011;4242;53.670;10.080;2022-10-16T04:26:38;7.30;;;1.50;;
8409;SDS011;4242;53.670;10.080;2022-10-16T04:29:04;2.17;;;1.30;;
8409;SDS011;4242;53.670;10.080;2022-10-16T04:31:31;5.13;;;1.37;;
8409;SDS011;4242;53.670;10.080;2022-10-16T04:33:57;3.77;;;1.43;;
8409;SDS011;4242;53.670;10.080;2022-10-16T04:36:23;5.60;;;1.60;;
8409;SDS011;4242;53.670;10.080;2022-10-16T04:38:49;4.13;;;1.70;;
8409;SDS011;4242;53.670;10.080;2022-10-16T04:41:15;3.73;;;1.40;;
8409;SDS011;4242;53.670;10.080;2022-10-16T04:43:41;4.27;;;1.67;;
8409;SDS011;4242;53.670;10.080;2022-10-16T04:46:07;2.90;;;1.70;;
8409;SDS011;4242;53.670;10.080;2022-10-16T04:48:33;2.17;;;1.27;;
8409;SDS011;4242;53.670;10.080;2022-10-16T04:50:59;5.07;;;1.50;;
8409;SDS011;4242;53.670;10.080;2022-10-16T04:53:25;3.73;;;1.70;;
8409;SDS011;4242;53.670;10.080;2022-10-16T04:55:51;4.10;;;1.33;;
8409;SDS011;4242;53.670;10.080;2022-10-16T04:58:17;1.63;;;1.23;;
8409;SDS011;4242;53.670;10.080;2022-10-16T05:00:43;8.03;;;1.87;;
8409;SDS011;4242;53.670;10.080;2022-10-16T05:03:09;6.13;;;1.50;;
8409;SDS011;4242;53.670;10.080;2022-10-16T05:05:35;3.07;;;1.37;;
8409;SDS011;4242;53.670;10.080;2022-10-16T05:08:02;1.77;;;1.30;;
8409;SDS011;4242;53.670;10.080;2022-10-16T05:10:28;3.90;;;1.60;;
8409;SDS011;4242;53.670;10.080;2022-10-16T05:12:54;2.10;;;1.47;;
8409;SDS011;4242;53.670;10.080;2022-10-16T05:15:20;7.10;;;1.87;;
8409;SDS011;4242;53.670;10.080;2022-10-16T05:17:51;4.17;;;1.57;;
8409;SDS011;4242;53.670;10.080;2022-10-16T05:20:17;4.70;;;1.60;;
8409;SDS011;4242;53.670;10.080;2022-10-16T05:22:43;3.00;;;1.60;;
8409;SDS011;4242;53.670;10.080;2022-10-16T05:25:09;4.87;;;2.17;;
8409;SDS011;4242;53.670;10.080;2022-10-16T05:27:35;2.17;;;1.60;;
8409;SDS011;4242;53.670;10.080;2022-10-16T05:30:02;2.93;;;1.60;;
8409;SDS011;4242;53.670;10.080;2022-10-16T05:32:28;2.60;;;1.80;;
8409;SDS011;4242;53.670;10.080;2022-10-16T05:34:54;4.03;;;1.97;;
8409;SDS011;4242;53.670;10.080;2022-10-16T05:37:20;2.67;;;1.73;;
8409;SDS011;4242;53.670;10.080;2022-10-16T05:39:46;3.13;;;2.17;;
8409;SDS011;4242;53.670;10.080;2022-10-16T05:42:12;2.90;;;2.20;;
8409;SDS011;4242;53.670;10.080;2022-10-16T05:44:38;3.43;;;1.97;;
8409;SDS011;4242;53.670;10.080;2022-10-16T05:47:04;5.10;;;1.93;;
8409;SDS011;4242;53.670;10.080;2022-10-16T05:49:30;3.13;;;1.90;;
8409;SDS011;4242;53.670;10.080;2022-10-16T05:51:56;4.63;;;2.00;;
8409;SDS011;4242;53.670;10.080;2022-10-16T05:54:22;4.33;;;2.00;;
8409;SDS011;4242;53.670;10.080;2022-10-16T05:56:48;8.27;;;2.57;;
8409;SDS011;4242;53.670;10.080;2022-10-16T05:59:14;3.60;;;2.17;;
8409;SDS011;4242;53.670;10.080;2022-10-16T06:01:40;2.37;;;1.70;;
8409;SDS011;4242;53.670;10.080;2022-10-16T06:04:07;2.47;;;1.67;;
8409;SDS011;4242;53.670;10.080;2022-10-16T06:06:34;5.83;;;1.90;;
8409;SDS011;4242;53.670;10.080;2022-10-16T06:09:01;3.63;;;1.73;;
8409;SDS011;4242;53.670;10.080;2022-10-16T06:11:28;3.47;;;1.70;;
8409;SDS011;4242;53.670;10.080;2022-10-16T06:13:56;3.07;;;1.70;;
8409;SDS011;4242;53.670;10.080;2022-10-16T06:16:23;4.43;;;1.70;;
8409;SDS011;4242;53.670;10.080;2022-10-16T06:18:52;1.67;;;1.40;;
8409;SDS011;4242;53.670;10.080;2022-10-16T06:21:19;3.90;;;1.90;;
8409;SDS011;4242;53.670;10.080;2022-10-16T06:23:46;4.80;;;1.80;;
8409;SDS011;4242;53.670;10.080;2022-10-16T06:26:13;2.90;;;1.70;;
8409;SDS011;4242;53.670;10.080;2022-10-16T06:28:39;2.53;;;1.50;;
8409;SDS011;4242;53.670;10.080;2022-10-16T06:31:05;4.87;;;1.90;;
8409;SDS011;4242;53.670;10.080;2022-10-16T06:33:32;5.97;;;1.70;;
8409;SDS011;4242;53.670;10.080;2022-10-16T06:36:05;4.13;;;1.60;;
8409;SDS011;4242;53.670;10.080;2022-10-16T06:38:33;4.33;;;1.77;;
8409;SDS011;4242;53.670;10.080;2022-10-16T06:40:59;4.23;;;1.73;;
8409;SDS011;4242;53.670;10.080;2022-10-16T06:43:25;4.97;;;1.67;;
8409;SDS011;4242;53.670;10.080;2022-10-16T06:45:52;5.13;;;2.20;;
8409;SDS011;4242;53.670;10.080;2022-10-16T06:48:18;3.93;;;1.67;;
8409;SDS011;4242;53.670;10.080;2022-10-16T06:50:54;2.77;;;1.90;;
8409;SDS011;4242;53.670;10.080;2022-10-16T06:53:20;5.07;;;1.70;;
8409;SDS011;4242;53.670;10.080;2022-10-16T06:55:46;5.30;;;1.93;;
8409;SDS011;4242;53.670;10.080;2022-10-16T06:58:12;2.37;;;1.80;;
8409;SDS011;4242;53.670;10.080;2022-10-16T07:00:38;3.53;;;2.00;;
8409;SDS011;4242;53.670;10.080;2022-10-16T07:03:04;2.40;;;1.57;;
8409;SDS011;4242;53.670;10.080;2022-10-16T07:05:30;5.67;;;1.60;;
8409;SDS011;4242;53.670;10.080;2022-10-16T07:07:56;5.20;;;1.67;;
8409;SDS011;4242;53.670;10.080;2022-10-16T07:10:22;4.47;;;1.67;;
8409;SDS011;4242;53.670;10.080;2022-10-16T07:12:50;3.43;;;1.47;;
8409;SDS011;4242;53.670;10.080;2022-10-16T07:15:16;4.50;;;2.00;;
8409;SDS011;4242;53.670;10.080;2022-10-16T07:17:42;4.43;;;1.90;;
8409;SDS011;4242;53.670;10.080;2022-10-16T07:20:09;2.37;;;1.60;;
8409;SDS011;4242;53.670;10.080;2022-10-16T07:22:35;4.70;;;1.80;;
8409;SDS011;4242;53.670;10.080;2022-10-16T07:25:01;4.03;;;1.97;;
8409;SDS011;4242;53.670;10.080;2022-10-16T07:27:27;4.37;;;2.10;;
8409;SDS011;4242;53.670;10.080;2022-10-16T07:29:53;4.93;;;1.63;;
8409;SDS011;4242;53.670;10.080;2022-10-16T07:32:19;4.37;;;1.60;;
8409;SDS011;4242;53.670;10.080;2022-10-16T07:34:45;3.47;;;1.93;;
8409;SDS011;4242;53.670;10.080;2022-10-16T07:37:11;3.27;;;1.90;;
8409;SDS011;4242;53.670;10.080;2022-10-16T07:39:37;3.33;;;1.97;;
8409;SDS011;4242;53.670;10.080;2022-10-16T07:42:03;1.90;;;1.63;;
8409;SDS011;4242;53.670;10.080;2022-10-16T07:44:29;4.60;;;2.30;;
8409;SDS011;4242;53.670;10.080;2022-10-16T07:46:55;1.70;;;1.60;;
8409;SDS011;4242;53.670;10.080;2022-10-16T07:49:22;3.53;;;2.07;;
8409;SDS011;4242;53.670;10.080;2022-10-16T07:51:48;5.23;;;2.30;;
8409;SDS011;4242;53.670;10.080;2022-10-16T07:54:14;4.33;;;2.10;;
8409;SDS011;4242;53.670;10.080;2022-10-16T07:59:08;2.43;;;2.17;;
8409;SDS011;4242;53.670;10.080;2022-10-16T08:01:34;5.77;;;2.30;;
8409;SDS011;4242;53.670;10.080;2022-10-16T08:04:00;3.80;;;2.30;;
8409;SDS011;4242;53.670;10.080;2022-10-16T08:06:26;5.03;;;2.50;;
8409;SDS011;4242;53.670;10.080;2022-10-16T08:08:52;2.43;;;2.10;;
8409;SDS011;4242;53.670;10.080;2022-10-16T08:11:18;3.40;;;2.10;;
8409;SDS011;4242;53.670;10.080;2022-10-16T08:13:44;5.47;;;2.20;;
8409;SDS011;4242;53.670;10.080;2022-10-16T08:16:10;3.10;;;2.07;;
8409;SDS011;4242;53.670;10.080;2022-10-16T08:18:37;4.60;;;2.60;;
8409;SDS011;4242;53.670;10.080;2022-10-16T08:21:03;2.97;;;1.97;;
8409;SDS011;4242;53.670;10.080;2022-10-16T08:23:30;4.40;;;2.30;;
8409;SDS011;4242;53.670;10.080;2022-10-16T08:26:00;2.90;;;2.37;;
8409;SDS011;4242;53.670;10.080;2022-10-16T08:28:27;3.53;;;2.30;;
8409;SDS011;4242;53.670;10.080;2022-10-16T08:30:53;5.33;;;2.13;;
8409;SDS011;4242;53.670;10.080;2022-10-16T08:33:21;6.40;;;2.40;;
8409;SDS011;4242;53.670;10.080;2022-10-16T08:35:53;3.90;;;2.30;;
8409;SDS011;4242;53.670;10.080;2022-10-16T08:38:19;4.00;;;2.53;;
8409;SDS011;4242;53.670;10.080;2022-10-16T08:40:45;4.20;;;2.53;;
8409;SDS011;4242;53.670;10.080;2022-10-16T08:50:46;2.37;;;2.07;;
8409;SDS011;4242;53.670;10.080;2022-10-16T08:53:18;5.63;;;2.43;;
8409;SDS011;4242;53.670;10.080;2022-10-16T08:55:51;3.30;;;2.30;;
8409;SDS011;4242;53.670;10.080;2022-10-16T08:58:21;4.80;;;2.17;;
8409;SDS011;4242;53.670;10.080;2022-10-16T09:00:49;3.33;;;2.23;;
8409;SDS011;4242;53.670;10.080;2022-10-16T09:05:57;2.90;;;2.20;;
8409;SDS011;4242;53.670;10.080;2022-10-16T09:08:30;5.83;;;2.40;;
8409;SDS011;4242;53.670;10.080;2022-10-16T09:13:34;2.80;;;2.10;;
8409;SDS011;4242;53.670;10.080;2022-10-16T09:16:07;2.87;;;1.83;;
8409;SDS011;4242;53.670;10.080;2022-10-16T09:21:15;3.67;;;2.00;;
8409;SDS011;4242;53.670;10.080;2022-10-16T09:23:44;2.77;;;1.80;;
8409;SDS011;4242;53.670;10.080;2022-10-16T09:26:11;4.20;;;2.10;;
8409;SDS011;4242;53.670;10.080;2022-10-16T09:28:38;2.70;;;1.90;;
8409;SDS011;4242;53.670;10.080;2022-10-16T09:31:04;3.93;;;1.93;;
8409;SDS011;4242;53.670;10.080;2022-10-16T09:33:32;6.17;;;1.67;;
8409;SDS011;4242;53.670;10.080;2022-10-16T09:35:59;5.77;;;1.77;;
8409;SDS011;4242;53.670;10.080;2022-10-16T09:38:27;3.37;;;1.73;;
8409;SDS011;4242;53.670;10.080;2022-10-16T09:40:54;2.23;;;1.67;;
8409;SDS011;4242;53.670;10.080;2022-10-16T09:43:39;4.00;;;1.67;;
8409;SDS011;4242;53.670;10.080;2022-10-16T09:46:07;3.60;;;1.70;;
8409;SDS011;4242;53.670;10.080;2022-10-16T09:48:37;4.20;;;1.80;;
8409;SDS011;4242;53.670;10.080;2022-10-16T09:51:04;8.47;;;1.73;;
8409;SDS011;4242;53.670;10.080;2022-10-16T09:53:43;2.10;;;1.60;;
8409;SDS011;4242;53.670;10.080;2022-10-16T09:56:10;4.30;;;1.53;;
8409;SDS011;4242;53.670;10.080;2022-10-16T09:58:41;3.47;;;1.53;;
8409;SDS011;4242;53.670;10.080;2022-10-16T10:01:11;7.97;;;1.60;;
8409;SDS011;4242;53.670;10.080;2022-10-16T10:03:38;3.80;;;1.70;;
8409;SDS011;4242;53.670;10.080;2022-10-16T10:06:13;2.80;;;1.20;;
8409;SDS011;4242;53.670;10.080;2022-10-16T10:08:41;2.30;;;1.50;;
8409;SDS011;4242;53.670;10.080;2022-10-16T10:11:07;1.57;;;1.33;;
8409;SDS011;4242;53.670;10.080;2022-10-16T10:13:33;8.33;;;1.87;;
8409;SDS011;4242;53.670;10.080;2022-10-16T10:15:59;2.93;;;1.63;;
8409;SDS011;4242;53.670;10.080;2022-10-16T10:18:25;3.03;;;1.50;;
8409;SDS011;4242;53.670;10.080;2022-10-16T10:21:01;4.57;;;1.37;;
8409;SDS011;4242;53.670;10.080;2022-10-16T10:23:28;5.73;;;1.50;;
8409;SDS011;4242;53.670;10.080;2022-10-16T10:31:42;6.47;;;1.90;;
8409;SDS011;4242;53.670;10.080;2022-10-16T10:36:40;5.90;;;1.43;;
8409;SDS011;4242;53.670;10.080;2022-10-16T10:39:08;5.60;;;1.67;;
8409;SDS011;4242;53.670;10.080;2022-10-16T10:41:47;3.33;;;1.70;;
8409;SDS011;4242;53.670;10.080;2022-10-16T10:49:31;6.90;;;1.63;;
8409;SDS011;4242;53.670;10.080;2022-10-16T11:07:43;3.87;;;1.47;;
8409;SDS011;4242;53.670;10.080;2022-10-16T11:10:15;3.10;;;1.30;;
8409;SDS011;4242;53.670;10.080;2022-10-16T11:12:42;7.40;;;1.60;;
8409;SDS011;4242;53.670;10.080;2022-10-16T11:15:24;4.43;;;1.23;;
8409;SDS011;4242;53.670;10.080;2022-10-16T11:17:59;3.90;;;1.37;;
8409;SDS011;4242;53.670;10.080;2022-10-16T11:20:32;2.70;;;1.40;;
8409;SDS011;4242;53.670;10.080;2022-10-16T11:23:05;8.27;;;1.60;;
8409;SDS011;4242;53.670;10.080;2022-10-16T11:25:32;5.63;;;1.30;;
8409;SDS011;4242;53.670;10.080;2022-10-16T11:30:44;4.43;;;1.37;;
8409;SDS011;4242;53.670;10.080;2022-10-16T11:33:19;4.90;;;1.20;;
8409;SDS011;4242;53.670;10.080;2022-10-16T11:35:47;4.83;;;1.43;;
8409;SDS011;4242;53.670;10.080;2022-10-16T11:38:29;8.43;;;1.17;;
8409;SDS011;4242;53.670;10.080;2022-10-16T11:40:59;5.93;;;1.30;;
8409;SDS011;4242;53.670;10.080;2022-10-16T11:43:32;4.00;;;1.20;;
8409;SDS011;4242;53.670;10.080;2022-10-16T11:46:03;3.93;;;1.10;;
8409;SDS011;4242;53.670;10.080;2022-10-16T11:48:35;4.67;;;1.20;;
8409;SDS011;4242;53.670;10.080;2022-10-16T11:53:51;2.90;;;0.77;;
8409;SDS011;4242;53.670;10.080;2022-10-16T11:56:20;4.17;;;1.30;;
8409;SDS011;4242;53.670;10.080;2022-10-16T11:58:54;3.67;;;1.40;;
8409;SDS011;4242;53.670;10.080;2022-10-16T12:01:30;4.20;;;1.30;;
8409;SDS011;4242;53.670;10.080;2022-10-16T12:09:04;4.77;;;1.33;;
8409;SDS011;4242;53.670;10.080;2022-10-16T12:11:32;2.43;;;1.37;;
8409;SDS011;4242;53.670;10.080;2022-10-16T12:16:38;4.00;;;1.10;;
8409;SDS011;4242;53.670;10.080;2022-10-16T12:19:14;4.70;;;1.53;;
8409;SDS011;4242;53.670;10.080;2022-10-16T12:21:41;3.87;;;1.33;;
8409;SDS011;4242;53.670;10.080;2022-10-16T12:24:18;1.90;;;1.03;;
8409;SDS011;4242;53.670;10.080;2022-10-16T12:26:45;2.87;;;1.30;;
8409;SDS011;4242;53.670;10.080;2022-10-16T12:31:55;2.73;;;1.27;;
8409;SDS011;4242;53.670;10.080;2022-10-16T12:37:06;6.90;;;1.40;;
8409;SDS011;4242;53.670;10.080;2022-10-16T12:39:33;2.90;;;1.10;;
8409;SDS011;4242;53.670;10.080;2022-10-16T12:42:02;8.20;;;1.50;;
8409;SDS011;4242;53.670;10.080;2022-10-16T12:44:32;6.17;;;1.23;;
8409;SDS011;4242;53.670;10.080;2022-10-16T12:46:59;4.30;;;1.30;;
8409;SDS011;4242;53.670;10.080;2022-10-16T12:49:30;3.97;;;1.50;;
8409;SDS011;4242;53.670;10.080;2022-10-16T12:51:56;4.77;;;1.60;;
8409;SDS011;4242;53.670;10.080;2022-10-16T13:02:15;2.10;;;1.10;;
8409;SDS011;4242;53.670;10.080;2022-10-16T13:04:56;2.85;;;1.35;;
8409;SDS011;4242;53.670;10.080;2022-10-16T13:08:02;2.83;;;1.30;;
8409;SDS011;4242;53.670;10.080;2022-10-16T13:10:21;3.22;;;1.30;;
8409;SDS011;4242;53.670;10.080;2022-10-16T13:15:18;3.45;;;1.20;;
8409;SDS011;4242;53.670;10.080;2022-10-16T13:17:56;2.97;;;1.30;;
8409;SDS011;4242;53.670;10.080;2022-10-16T13:20:28;2.15;;;1.30;;
8409;SDS011;4242;53.670;10.080;2022-10-16T13:30:18;4.03;;;1.70;;
8409;SDS011;4242;53.670;10.080;2022-10-16T13:32:49;1.80;;;1.30;;
8409;SDS011;4242;53.670;10.080;2022-10-16T13:35:23;8.27;;;1.75;;
8409;SDS011;4242;53.670;10.080;2022-10-16T13:37:49;6.25;;;1.23;;
8409;SDS011;4242;53.670;10.080;2022-10-16T13:40:22;3.38;;;1.25;;
8409;SDS011;4242;53.670;10.080;2022-10-16T13:42:49;3.70;;;1.25;;
8409;SDS011;4242;53.670;10.080;2022-10-16T13:45:24;6.25;;;1.35;;
8409;SDS011;4242;53.670;10.080;2022-10-16T13:48:03;3.50;;;1.58;;
8409;SDS011;4242;53.670;10.080;2022-10-16T13:50:29;3.22;;;1.15;;
8409;SDS011;4242;53.670;10.080;2022-10-16T13:53:05;3.17;;;1.30;;
8409;SDS011;4242;53.670;10.080;2022-10-16T13:58:12;2.17;;;1.25;;
8409;SDS011;4242;53.670;10.080;2022-10-16T14:00:39;1.60;;;1.40;;
8409;SDS011;4242;53.670;10.080;2022-10-16T14:03:07;3.10;;;1.40;;
8409;SDS011;4242;53.670;10.080;2022-10-16T14:05:40;2.50;;;1.30;;
8409;SDS011;4242;53.670;10.080;2022-10-16T14:08:09;3.88;;;1.52;;
8409;SDS011;4242;53.670;10.080;2022-10-16T14:10:36;1.25;;;1.10;;
8409;SDS011;4242;53.670;10.080;2022-10-16T14:13:04;2.08;;;1.45;;
8409;SDS011;4242;53.670;10.080;2022-10-16T14:15:31;1.88;;;1.20;;
8409;SDS011;4242;53.670;10.080;2022-10-16T14:17:58;2.42;;;1.40;;
8409;SDS011;4242;53.670;10.080;2022-10-16T14:20:26;1.50;;;0.98;;
8409;SDS011;4242;53.670;10.080;2022-10-16T14:23:02;2.35;;;1.00;;
8409;SDS011;4242;53.670;10.080;2022-10-16T14:25:30;3.33;;;1.30;;
8409;SDS011;4242;53.670;10.080;2022-10-16T14:28:03;2.80;;;1.30;;
8409;SDS011;4242;53.670;10.080;2022-10-16T14:30:30;3.40;;;1.17;;
8409;SDS011;4242;53.670;10.080;2022-10-16T14:32:57;2.08;;;1.02;;
8409;SDS011;4242;53.670;10.080;2022-10-16T14:37:53;4.20;;;1.30;;
8409;SDS011;4242;53.670;10.080;2022-10-16T14:40:20;3.95;;;1.20;;
8409;SDS011;4242;53.670;10.080;2022-10-16T14:42:48;2.05;;;1.23;;
8409;SDS011;4242;53.670;10.080;2022-10-16T14:45:17;2.17;;;1.45;;
8409;SDS011;4242;53.670;10.080;2022-10-16T14:47:47;2.80;;;1.30;;
8409;SDS011;4242;53.670;10.080;2022-10-16T14:50:13;2.45;;;1.25;;
8409;SDS011;4242;53.670;10.080;2022-10-16T14:52:39;3.58;;;1.60;;
8409;SDS011;4242;53.670;10.080;2022-10-16T14:55:05;2.22;;;1.23;;
8409;SDS011;4242;53.670;10.080;2022-10-16T14:57:33;4.22;;;1.60;;
8409;SDS011;4242;53.670;10.080;2022-10-16T15:00:00;3.30;;;1.25;;
8409;SDS011;4242;53.670;10.080;2022-10-16T15:02:30;3.42;;;1.38;;
8409;SDS011;4242;53.670;10.080;2022-10-16T15:04:56;3.40;;;1.50;;
8409;SDS011;4242;53.670;10.080;2022-10-16T15:07:22;4.65;;;1.75;;
8409;SDS011;4242;53.670;10.080;2022-10-16T15:09:49;3.20;;;1.30;;
8409;SDS011;4242;53.670;10.080;2022-10-16T15:12:15;3.20;;;1.13;;
8409;SDS011;4242;53.670;10.080;2022-10-16T15:14:41;3.55;;;1.30;;
8409;SDS011;4242;53.670;10.080;2022-10-16T15:17:11;8.55;;;1.63;;
8409;SDS011;4242;53.670;10.080;2022-10-16T15:19:37;2.78;;;1.40;;
8409;SDS011;4242;53.670;10.080;2022-10-16T15:22:03;3.47;;;1.70;;
8409;SDS011;4242;53.670;10.080;2022-10-16T15:24:29;2.30;;;1.40;;
8409;SDS011;4242;53.670;10.080;2022-10-16T15:26:55;5.13;;;1.42;;
8409;SDS011;4242;53.670;10.080;2022-10-16T15:29:21;4.50;;;1.45;;
8409;SDS011;4242;53.670;10.080;2022-10-16T15:31:46;3.70;;;1.95;;
8409;SDS011;4242;53.670;10.080;2022-10-16T15:34:13;7.30;;;1.88;;
8409;SDS011;4242;53.670;10.080;2022-10-16T15:36:39;5.75;;;3.13;;
8409;SDS011;4242;53.670;10.080;2022-10-16T15:39:08;4.60;;;1.80;;
8409;SDS011;4242;53.670;10.080;2022-10-16T15:41:36;8.65;;;2.38;;
8409;SDS011;4242;53.670;10.080;2022-10-16T15:44:03;6.25;;;1.80;;
8409;SDS011;4242;53.670;10.080;2022-10-16T15:46:29;2.78;;;1.50;;
8409;SDS011;4242;53.670;10.080;2022-10-16T15:48:56;6.57;;;2.35;;
8409;SDS011;4242;53.670;10.080;2022-10-16T15:51:23;7.90;;;5.53;;
8409;SDS011;4242;53.670;10.080;2022-10-16T15:53:49;13.70;;;8.45;;
8409;SDS011;4242;53.670;10.080;2022-10-16T15:56:16;12.50;;;8.55;;
8409;SDS011;4242;53.670;10.080;2022-10-16T15:58:43;20.52;;;18.33;;
8409;SDS011;4242;53.670;10.080;2022-10-16T16:01:09;14.75;;;10.77;;
8409;SDS011;4242;53.670;10.080;2022-10-16T16:03:36;11.73;;;7.05;;
8409;SDS011;4242;53.670;10.080;2022-10-16T16:06:05;7.13;;;4.93;;
8409;SDS011;4242;53.670;10.080;2022-10-16T16:08:32;5.27;;;3.70;;
8409;SDS011;4242;53.670;10.080;2022-10-16T16:11:05;14.20;;;11.93;;
8409;SDS011;4242;53.670;10.080;2022-10-16T16:13:32;9.87;;;7.33;;
8409;SDS011;4242;53.670;10.080;2022-10-16T16:15:58;27.23;;;20.17;;
8409;SDS011;4242;53.670;10.080;2022-10-16T16:18:24;7.27;;;4.73;;
8409;SDS011;4242;53.670;10.080;2022-10-16T16:20:50;7.20;;;2.90;;
8409;SDS011;4242;53.670;10.080;2022-10-16T16:23:16;5.67;;;3.40;;
8409;SDS011;4242;53.670;10.080;2022-10-16T16:25:44;11.67;;;9.90;;
8409;SDS011;4242;53.670;10.080;2022-10-16T16:28:10;8.83;;;5.63;;
8409;SDS011;4242;53.670;10.080;2022-10-16T16:30:39;5.67;;;3.40;;
8409;SDS011;4242;53.670;10.080;2022-10-16T16:33:05;11.00;;;5.40;;
8409;SDS011;4242;53.670;10.080;2022-10-16T16:35:31;24.67;;;15.53;;
8409;SDS011;4242;53.670;10.080;2022-10-16T16:37:56;5.53;;;3.47;;
8409;SDS011;4242;53.670;10.080;2022-10-16T16:40:22;8.90;;;2.80;;
8409;SDS011;4242;53.670;10.080;2022-10-16T16:42:48;6.47;;;2.60;;